createdAt,value
2023-05-09T00:02:10.744Z,5.70
2023-05-09T00:06:20.899Z,5.57
2023-05-09T00:10:25.158Z,5.75
2023-05-09T00:14:27.917Z,6.00
2023-05-09T00:18:31.013Z,5.47
2023-05-09T00:22:33.897Z,5.70
2023-05-09T00:26:40.416Z,6.05
2023-05-09T00:30:43.128Z,6.13
2023-05-09T00:34:45.841Z,6.03
2023-05-09T00:38:48.981Z,5.90
2023-05-09T00:42:53.237Z,6.40
2023-05-09T00:46:56.110Z,6.25
2023-05-09T00:50:58.882Z,6.32
2023-05-09T00:55:03.282Z,6.90
2023-05-09T00:59:07.372Z,6.40
2023-05-09T01:03:10.522Z,6.65
2023-05-09T01:07:22.800Z,7.00
2023-05-09T01:11:37.245Z,6.70
2023-05-09T01:15:48.386Z,6.82
2023-05-09T01:20:05.675Z,6.68
2023-05-09T01:24:30.418Z,6.93
2023-05-09T01:28:56.768Z,6.60
2023-05-09T01:33:08.750Z,7.05
2023-05-09T01:37:14.140Z,7.13
2023-05-09T01:41:18.845Z,6.70
2023-05-09T01:45:22.496Z,6.85
2023-05-09T01:49:29.779Z,6.65
2023-05-09T01:53:33.087Z,6.68
2023-05-09T01:57:38.085Z,6.53
2023-05-09T02:01:41.138Z,6.75
2023-05-09T02:05:46.308Z,6.95
2023-05-09T02:09:51.996Z,7.10
2023-05-09T02:13:54.828Z,6.65
2023-05-09T02:17:58.096Z,6.90
2023-05-09T02:22:05.581Z,7.78
2023-05-09T02:26:12.258Z,7.82
2023-05-09T02:30:23.301Z,8.52
2023-05-09T02:34:26.532Z,8.65
2023-05-09T02:38:30.666Z,8.98
2023-05-09T02:42:33.378Z,9.15
2023-05-09T02:46:36.444Z,9.40
2023-05-09T02:50:39.499Z,9.38
2023-05-09T02:54:43.797Z,10.27
2023-05-09T02:58:51.085Z,10.20
2023-05-09T03:02:54.649Z,10.45
2023-05-09T03:06:57.516Z,11.10
2023-05-09T03:11:06.338Z,10.82
2023-05-09T03:15:10.403Z,11.07
2023-05-09T03:19:16.209Z,12.15
2023-05-09T03:23:19.111Z,12.85
2023-05-09T03:27:23.225Z,12.15
2023-05-09T03:31:27.015Z,11.82
2023-05-09T03:35:29.847Z,12.57
2023-05-09T03:39:33.091Z,13.63
2023-05-09T03:43:37.329Z,13.68
2023-05-09T03:47:40.225Z,13.32
2023-05-09T03:51:43.387Z,13.50
2023-05-09T03:55:50.532Z,13.00
2023-05-09T03:59:55.516Z,13.77
2023-05-09T04:04:00.601Z,12.18
2023-05-09T04:08:06.534Z,13.95
2023-05-09T04:12:09.771Z,13.23
2023-05-09T04:16:15.293Z,12.75
2023-05-09T04:20:18.520Z,12.52
2023-05-09T04:24:22.143Z,12.65
2023-05-09T04:28:25.118Z,12.73
2023-05-09T04:32:29.921Z,11.98
2023-05-09T04:36:33.778Z,11.60
2023-05-09T04:40:37.052Z,11.18
2023-05-09T04:44:40.062Z,11.05
2023-05-09T04:48:44.565Z,11.25
2023-05-09T04:52:47.329Z,11.45
2023-05-09T04:56:51.180Z,11.93
2023-05-09T05:00:54.657Z,12.43
2023-05-09T05:05:10.715Z,12.75
2023-05-09T05:09:17.401Z,12.40
2023-05-09T05:13:22.418Z,12.13
2023-05-09T05:17:41.732Z,12.57
2023-05-09T05:21:46.984Z,11.40
2023-05-09T05:25:50.106Z,11.80
2023-05-09T05:29:53.281Z,10.82
2023-05-09T05:33:56.900Z,10.38
2023-05-09T05:38:01.874Z,10.80
2023-05-09T05:42:05.134Z,10.90
2023-05-09T05:46:08.021Z,11.10
2023-05-09T05:50:12.276Z,10.50
2023-05-09T05:54:17.259Z,10.43
2023-05-09T05:58:20.528Z,10.52
2023-05-09T06:02:24.059Z,10.27
2023-05-09T06:06:28.477Z,10.73
2023-05-09T06:10:33.351Z,9.70
2023-05-09T06:14:36.348Z,10.60
2023-05-09T06:18:40.210Z,10.70
2023-05-09T06:22:45.091Z,11.43
2023-05-09T06:26:50.620Z,11.52
2023-05-09T06:30:53.345Z,11.70
2023-05-09T06:34:56.126Z,11.55
2023-05-09T06:38:59.128Z,12.32
2023-05-09T06:43:03.399Z,12.10
2023-05-09T06:47:06.313Z,12.85
2023-05-09T06:51:09.222Z,12.77
2023-05-09T06:55:12.130Z,12.70
2023-05-09T06:59:16.559Z,12.45
2023-05-09T07:03:19.351Z,13.55
2023-05-09T07:07:22.366Z,13.50
2023-05-09T07:11:25.515Z,13.75
2023-05-09T07:15:40.616Z,13.38
2023-05-09T07:19:45.244Z,13.40
2023-05-09T07:23:48.657Z,13.75
2023-05-09T07:27:51.576Z,13.02
2023-05-09T07:31:55.717Z,13.25
2023-05-09T07:35:59.931Z,13.43
2023-05-09T07:40:03.315Z,13.32
2023-05-09T07:44:06.376Z,12.82
2023-05-09T07:48:10.586Z,13.35
2023-05-09T07:52:13.525Z,13.80
2023-05-09T07:56:16.388Z,13.65
2023-05-09T08:00:23.528Z,12.98
2023-05-09T08:04:28.031Z,14.00
2023-05-09T08:08:30.968Z,13.77
2023-05-09T08:12:33.739Z,14.27
2023-05-09T08:16:36.629Z,13.63
2023-05-09T08:20:41.104Z,14.77
2023-05-09T08:24:43.844Z,14.88
2023-05-09T08:28:46.674Z,13.38
2023-05-09T08:32:50.099Z,13.05
2023-05-09T08:36:54.238Z,13.75
2023-05-09T08:41:01.329Z,12.38
2023-05-09T08:45:09.647Z,12.75
2023-05-09T08:49:12.902Z,12.73
2023-05-09T08:53:17.805Z,12.80
2023-05-09T08:57:20.945Z,12.93
2023-05-09T09:01:24.787Z,12.45
2023-05-09T09:05:40.688Z,13.18
2023-05-09T09:09:48.690Z,12.30
2023-05-09T09:13:53.813Z,12.40
2023-05-09T09:17:59.079Z,12.38
2023-05-09T09:22:05.444Z,12.95
2023-05-09T09:26:09.932Z,12.63
2023-05-09T09:30:14.346Z,12.73
2023-05-09T09:34:22.244Z,12.25
2023-05-09T09:38:26.766Z,12.57
2023-05-09T09:42:41.568Z,13.73
2023-05-09T09:46:45.803Z,12.50
2023-05-09T09:50:49.340Z,12.68
2023-05-09T09:54:52.208Z,12.13
2023-05-09T09:59:10.965Z,11.45
2023-05-09T10:03:16.873Z,12.30
2023-05-09T10:07:24.466Z,11.82
2023-05-09T10:11:27.394Z,10.80
2023-05-09T10:15:41.367Z,10.52
2023-05-09T10:19:50.664Z,10.75
2023-05-09T10:23:54.667Z,10.07
2023-05-09T10:28:01.920Z,9.95
2023-05-09T10:32:15.681Z,8.95
2023-05-09T10:36:20.582Z,8.55
2023-05-09T10:40:23.899Z,8.57
2023-05-09T10:44:27.379Z,8.98
2023-05-09T10:48:33.402Z,8.27
2023-05-09T10:52:36.366Z,7.35
2023-05-09T10:56:40.077Z,6.80
2023-05-09T11:00:43.899Z,6.70
2023-05-09T11:04:48.201Z,7.50
2023-05-09T11:08:51.172Z,7.25
2023-05-09T11:12:57.502Z,7.43
2023-05-09T11:17:02.839Z,6.85
2023-05-09T11:21:10.470Z,6.70
2023-05-09T11:25:15.289Z,6.80
2023-05-09T11:29:19.009Z,7.00
2023-05-09T11:33:25.675Z,7.00
2023-05-09T11:37:32.387Z,8.35
2023-05-09T11:41:45.060Z,7.20
2023-05-09T11:45:51.330Z,7.35
2023-05-09T11:49:57.337Z,9.15
2023-05-09T11:54:03.720Z,8.43
2023-05-09T11:58:11.652Z,7.60
2023-05-09T12:02:15.079Z,7.93
2023-05-09T12:06:21.313Z,8.95
2023-05-09T12:10:31.944Z,7.20
2023-05-09T12:14:39.195Z,7.80
2023-05-09T12:18:46.667Z,8.10
2023-05-09T12:22:54.338Z,8.15
2023-05-09T12:27:03.450Z,7.65
2023-05-09T12:31:08.186Z,7.70
2023-05-09T12:35:11.619Z,7.72
2023-05-09T12:39:18.298Z,7.30
2023-05-09T12:43:22.946Z,6.53
2023-05-09T12:47:28.921Z,7.68
2023-05-09T12:51:31.863Z,7.05
2023-05-09T12:55:45.068Z,7.57
2023-05-09T12:59:49.652Z,7.43
2023-05-09T13:03:53.362Z,7.43
2023-05-09T13:07:58.446Z,7.45
2023-05-09T13:12:02.892Z,6.70
2023-05-09T13:16:08.872Z,7.88
2023-05-09T13:20:13.477Z,7.10
2023-05-09T13:24:16.412Z,6.38
2023-05-09T13:28:19.157Z,7.13
2023-05-09T13:32:24.865Z,7.55
2023-05-09T13:36:27.712Z,7.45
2023-05-09T13:40:30.431Z,7.25
2023-05-09T13:44:33.246Z,7.25
2023-05-09T13:48:37.752Z,6.97
2023-05-09T13:52:40.619Z,7.13
2023-05-09T13:56:43.765Z,5.65
2023-05-09T14:00:46.599Z,6.28
2023-05-09T14:04:56.152Z,5.97
2023-05-09T14:08:58.926Z,5.38
2023-05-09T14:13:01.986Z,4.97
2023-05-09T14:17:04.879Z,5.40
2023-05-09T14:21:09.237Z,5.15
2023-05-09T14:25:12.463Z,5.88
2023-05-09T14:29:15.706Z,6.05
2023-05-09T14:33:18.532Z,6.07
2023-05-09T14:37:22.809Z,6.47
2023-05-09T14:41:25.942Z,6.90
2023-05-09T14:45:28.958Z,6.57
2023-05-09T14:49:31.905Z,6.70
2023-05-09T14:53:40.661Z,7.35
2023-05-09T14:57:43.530Z,7.43
2023-05-09T15:01:46.474Z,7.07
2023-05-09T15:05:50.407Z,7.28
2023-05-09T15:09:54.924Z,6.60
2023-05-09T15:13:57.888Z,6.70
2023-05-09T15:18:02.252Z,6.63
2023-05-09T15:22:06.111Z,6.53
2023-05-09T15:26:12.189Z,6.78
2023-05-09T15:30:15.808Z,5.90
2023-05-09T15:34:18.957Z,6.20
2023-05-09T15:38:21.770Z,6.65
2023-05-09T15:42:26.213Z,6.53
2023-05-09T15:46:29.837Z,6.78
2023-05-09T15:50:32.798Z,6.60
2023-05-09T15:54:36.006Z,6.32
2023-05-09T15:58:40.372Z,6.53
2023-05-09T16:02:44.083Z,6.97
2023-05-09T16:06:47.933Z,6.47
2023-05-09T16:10:51.833Z,7.38
2023-05-09T16:14:55.976Z,6.53
2023-05-09T16:18:58.719Z,6.72
2023-05-09T16:23:01.597Z,6.57
2023-05-09T16:27:04.673Z,6.43
2023-05-09T16:31:09.001Z,6.63
2023-05-09T16:35:12.490Z,6.45
2023-05-09T16:39:15.372Z,6.43
2023-05-09T16:43:20.049Z,6.95
2023-05-09T16:47:24.257Z,6.80
2023-05-09T16:51:27.376Z,6.45
2023-05-09T16:55:30.158Z,6.47
2023-05-09T16:59:33.064Z,6.38
2023-05-09T17:03:37.220Z,6.07
2023-05-09T17:07:39.984Z,6.15
2023-05-09T17:11:42.780Z,6.25
2023-05-09T17:15:45.655Z,6.20
2023-05-09T17:19:49.795Z,7.50
2023-05-09T17:23:53.923Z,7.55
2023-05-09T17:27:56.852Z,9.52
2023-05-09T17:32:01.500Z,6.93
2023-05-09T17:36:06.439Z,6.60
2023-05-09T17:40:10.465Z,7.07
2023-05-09T17:44:13.484Z,7.60
2023-05-09T17:48:16.481Z,6.80
2023-05-09T17:52:21.349Z,7.47
2023-05-09T17:56:24.499Z,6.85
2023-05-09T18:00:27.542Z,6.70
2023-05-09T18:04:32.842Z,6.90
2023-05-09T18:08:37.689Z,6.82
2023-05-09T18:12:40.925Z,7.70
2023-05-09T18:16:44.039Z,6.70
2023-05-09T18:20:47.526Z,7.45
2023-05-09T18:24:52.965Z,7.28
2023-05-09T18:28:55.939Z,8.38
2023-05-09T18:33:00.309Z,7.90
2023-05-09T18:37:03.527Z,7.65
2023-05-09T18:41:09.668Z,8.32
2023-05-09T18:45:14.387Z,8.82
2023-05-09T18:49:17.621Z,8.57
2023-05-09T18:53:20.754Z,8.52
2023-05-09T18:57:25.131Z,8.05
2023-05-09T19:01:28.539Z,8.50
2023-05-09T19:05:31.580Z,8.48
2023-05-09T19:09:34.645Z,8.88
2023-05-09T19:13:40.841Z,8.73
2023-05-09T19:17:44.121Z,8.38
2023-05-09T19:21:49.089Z,8.90
2023-05-09T19:25:53.890Z,9.00
2023-05-09T19:29:59.473Z,8.80
2023-05-09T19:34:02.496Z,8.00
2023-05-09T19:38:05.789Z,9.00
2023-05-09T19:42:09.115Z,8.30
2023-05-09T19:46:13.473Z,8.07
2023-05-09T19:50:16.857Z,8.82
2023-05-09T19:54:20.158Z,9.48
2023-05-09T19:58:23.168Z,9.77
2023-05-09T20:02:27.566Z,10.25
2023-05-09T20:06:30.778Z,10.10
2023-05-09T20:10:34.140Z,10.55
2023-05-09T20:14:37.764Z,12.07
2023-05-09T20:18:42.221Z,11.70
2023-05-09T20:22:45.499Z,11.60
2023-05-09T20:26:48.639Z,13.15
2023-05-09T20:30:51.645Z,13.05
2023-05-09T20:35:03.320Z,12.48
2023-05-09T20:39:06.647Z,11.38
2023-05-09T20:43:09.853Z,11.88
2023-05-09T20:47:12.875Z,11.95
2023-05-09T20:51:17.201Z,12.38
2023-05-09T20:55:20.333Z,12.75
2023-05-09T20:59:23.128Z,12.13
2023-05-09T21:03:26.117Z,12.52
2023-05-09T21:07:30.778Z,12.10
2023-05-09T21:11:33.715Z,12.40
2023-05-09T21:15:36.587Z,12.38
2023-05-09T21:19:39.411Z,12.02
2023-05-09T21:23:43.511Z,12.25
2023-05-09T21:27:46.263Z,12.68
2023-05-09T21:31:49.052Z,11.90
2023-05-09T21:35:51.762Z,12.30
2023-05-09T21:39:55.922Z,12.68
2023-05-09T21:43:58.646Z,13.05
2023-05-09T21:48:01.649Z,13.32
2023-05-09T21:52:05.049Z,12.90
2023-05-09T21:56:09.553Z,12.25
2023-05-09T22:00:15.320Z,12.48
2023-05-09T22:04:18.328Z,12.10
2023-05-09T22:08:21.343Z,11.95
2023-05-09T22:12:26.083Z,12.55
2023-05-09T22:16:40.538Z,12.75
2023-05-09T22:20:44.723Z,13.02
2023-05-09T22:24:47.565Z,12.70
2023-05-09T22:28:51.828Z,12.90
2023-05-09T22:32:55.130Z,13.18
2023-05-09T22:36:58.000Z,13.05
2023-05-09T22:41:00.848Z,13.65
2023-05-09T22:45:05.855Z,12.32
2023-05-09T22:49:08.844Z,12.57
2023-05-09T22:53:11.940Z,13.02
2023-05-09T22:57:17.670Z,12.90
2023-05-09T23:01:22.017Z,13.77
2023-05-09T23:05:24.815Z,13.20
2023-05-09T23:09:28.325Z,13.50
2023-05-09T23:13:31.246Z,14.38
2023-05-09T23:17:35.510Z,13.57
2023-05-09T23:21:38.281Z,13.65
2023-05-09T23:25:41.093Z,13.82
2023-05-09T23:29:44.305Z,12.68
2023-05-09T23:33:48.923Z,14.55
2023-05-09T23:37:51.838Z,13.68
2023-05-09T23:41:54.560Z,13.88
2023-05-09T23:45:57.527Z,14.25
2023-05-09T23:50:01.705Z,13.73
2023-05-09T23:54:04.745Z,13.20
2023-05-09T23:58:10.797Z,13.52
